createdAt,value
2018-11-04T00:00:21.004Z,2.66
2018-11-04T00:02:59.585Z,2.64
2018-11-04T00:05:36.529Z,2.62
2018-11-04T00:08:14.636Z,2.60
2018-11-04T00:10:54.588Z,2.58
2018-11-04T00:13:33.148Z,2.55
2018-11-04T00:16:13.289Z,2.54
2018-11-04T00:18:49.668Z,2.51
2018-11-04T00:21:26.798Z,2.47
2018-11-04T00:24:02.627Z,2.44
2018-11-04T00:26:38.785Z,2.43
2018-11-04T00:29:15.669Z,2.40
2018-11-04T00:31:53.152Z,2.38
2018-11-04T00:34:29.328Z,2.36
2018-11-04T00:37:09.960Z,2.36
2018-11-04T00:39:48.805Z,2.35
2018-11-04T00:42:28.454Z,2.34
2018-11-04T00:45:06.811Z,2.33
2018-11-04T00:47:44.483Z,2.31
2018-11-04T00:50:20.972Z,2.27
2018-11-04T00:52:58.789Z,2.23
2018-11-04T00:55:40.091Z,2.20
2018-11-04T00:58:17.598Z,2.16
2018-11-04T01:00:54.056Z,2.13
2018-11-04T01:03:31.066Z,2.12
2018-11-04T01:06:09.255Z,2.09
2018-11-04T01:08:48.769Z,2.06
2018-11-04T01:11:26.426Z,2.06
2018-11-04T01:14:04.270Z,2.06
2018-11-04T01:16:44.549Z,2.06
2018-11-04T01:19:22.619Z,2.06
2018-11-04T01:21:58.724Z,2.07
2018-11-04T01:24:34.995Z,2.09
2018-11-04T01:27:10.990Z,2.10
2018-11-04T01:29:47.986Z,2.11
2018-11-04T01:32:23.291Z,2.09
2018-11-04T01:34:59.118Z,2.06
2018-11-04T01:37:36.093Z,2.00
2018-11-04T01:40:13.588Z,1.99
2018-11-04T01:42:50.239Z,1.96
2018-11-04T01:45:28.253Z,1.93
2018-11-04T01:48:01.625Z,1.91
2018-11-04T01:50:31.265Z,1.88
2018-11-04T01:53:00.776Z,1.88
2018-11-04T01:55:30.278Z,1.85
2018-11-04T01:57:59.823Z,1.81
2018-11-04T02:00:29.316Z,1.81
2018-11-04T02:02:59.717Z,1.80
2018-11-04T02:05:29.274Z,1.81
2018-11-04T02:07:58.878Z,1.83
2018-11-04T02:10:28.385Z,1.87
2018-11-04T02:12:57.947Z,1.91
2018-11-04T02:15:27.522Z,1.94
2018-11-04T02:17:57.085Z,1.96
2018-11-04T02:20:26.681Z,1.96
2018-11-04T02:22:56.290Z,1.96
2018-11-04T02:25:25.839Z,1.96
2018-11-04T02:27:55.370Z,1.96
2018-11-04T02:30:24.815Z,1.97
2018-11-04T02:32:54.417Z,1.97
2018-11-04T02:35:24.018Z,1.96
2018-11-04T02:40:37.336Z,2.02
2018-11-04T02:43:06.848Z,2.00
2018-11-04T02:45:36.322Z,1.97
2018-11-04T02:48:06.183Z,1.95
2018-11-04T02:50:35.665Z,1.93
2018-11-04T02:53:06.597Z,1.93
2018-11-04T02:55:36.147Z,1.90
2018-11-04T02:58:06.600Z,1.87
2018-11-04T03:00:36.156Z,1.84
2018-11-04T03:03:06.916Z,1.82
2018-11-04T03:05:36.381Z,1.81
2018-11-04T03:08:06.130Z,1.80
2018-11-04T03:10:35.630Z,1.80
2018-11-04T03:13:06.420Z,1.79
2018-11-04T03:15:35.915Z,1.82
2018-11-04T03:18:06.241Z,1.82
2018-11-04T03:20:35.780Z,1.86
2018-11-04T03:23:06.561Z,1.89
2018-11-04T03:25:36.015Z,1.89
2018-11-04T03:28:07.541Z,1.90
2018-11-04T03:30:37.451Z,1.88
2018-11-04T03:33:07.624Z,1.87
2018-11-04T03:35:37.283Z,1.86
2018-11-04T03:38:07.449Z,1.90
2018-11-04T03:40:37.034Z,1.93
2018-11-04T03:43:06.810Z,1.93
2018-11-04T03:45:36.280Z,1.95
2018-11-04T03:48:06.570Z,1.94
2018-11-04T03:50:36.131Z,1.95
2018-11-04T03:53:07.669Z,1.92
2018-11-04T03:55:38.120Z,1.87
2018-11-04T03:58:07.639Z,1.82
2018-11-04T04:00:37.296Z,1.78
2018-11-04T04:03:06.840Z,1.74
2018-11-04T04:05:36.461Z,1.71
2018-11-04T04:08:06.560Z,1.72
2018-11-04T04:10:36.061Z,1.73
2018-11-04T04:13:05.871Z,1.73
2018-11-04T04:15:35.340Z,1.70
2018-11-04T04:18:06.061Z,1.69
2018-11-04T04:20:35.597Z,1.66
2018-11-04T04:23:06.347Z,1.64
2018-11-04T04:25:35.938Z,1.62
2018-11-04T04:28:06.318Z,1.61
2018-11-04T04:30:36.826Z,1.60
2018-11-04T04:33:06.815Z,1.59
2018-11-04T04:35:36.368Z,1.56
2018-11-04T04:38:06.872Z,1.55
2018-11-04T04:40:36.414Z,1.55
2018-11-04T04:43:07.657Z,1.52
2018-11-04T04:45:37.164Z,1.51
2018-11-04T04:48:06.946Z,1.49
2018-11-04T04:50:36.469Z,1.48
2018-11-04T04:53:07.019Z,1.46
2018-11-04T04:55:36.479Z,1.43
2018-11-04T04:58:13.201Z,1.43
2018-11-04T05:00:42.531Z,1.41
2018-11-04T05:03:11.841Z,1.38
2018-11-04T05:05:41.190Z,1.37
2018-11-04T05:08:10.547Z,1.34
2018-11-04T05:10:39.866Z,1.35
2018-11-04T05:13:09.198Z,1.34
2018-11-04T05:15:38.520Z,1.35
2018-11-04T05:18:08.306Z,1.32
2018-11-04T05:20:37.687Z,1.32
2018-11-04T05:23:07.409Z,1.35
2018-11-04T05:25:36.771Z,1.37
2018-11-04T05:28:06.794Z,1.40
2018-11-04T05:30:36.271Z,1.41
2018-11-04T05:33:06.396Z,1.41
2018-11-04T05:35:35.776Z,1.44
2018-11-04T05:38:06.355Z,1.46
2018-11-04T05:40:35.691Z,1.46
2018-11-04T05:43:06.153Z,1.45
2018-11-04T05:45:48.731Z,1.45
2018-11-04T05:48:18.847Z,1.42
2018-11-04T05:50:48.165Z,1.43
2018-11-04T05:53:17.497Z,1.45
2018-11-04T05:55:46.835Z,1.45
2018-11-04T05:58:16.382Z,1.45
2018-11-04T06:00:51.485Z,1.48
2018-11-04T06:03:21.060Z,1.49
2018-11-04T06:05:50.626Z,1.50
2018-11-04T06:08:20.134Z,1.49
2018-11-04T06:10:49.680Z,1.49
2018-11-04T06:13:19.243Z,1.53
2018-11-04T06:15:48.787Z,1.54
2018-11-04T06:18:18.703Z,1.52
2018-11-04T06:20:48.281Z,1.52
2018-11-04T06:23:17.888Z,1.48
2018-11-04T06:25:47.375Z,1.49
2018-11-04T06:28:16.879Z,1.48
2018-11-04T06:30:46.364Z,1.46
2018-11-04T06:33:15.813Z,1.48
2018-11-04T06:35:45.372Z,1.49
2018-11-04T06:38:14.847Z,1.49
2018-11-04T06:40:44.410Z,1.49
2018-11-04T06:43:13.915Z,1.46
2018-11-04T06:45:43.427Z,1.48
2018-11-04T06:48:12.938Z,1.44
2018-11-04T06:50:42.553Z,1.46
2018-11-04T06:53:12.038Z,1.49
2018-11-04T06:55:41.554Z,1.49
2018-11-04T06:58:11.247Z,1.51
2018-11-04T07:00:40.865Z,1.53
2018-11-04T07:03:10.374Z,1.55
2018-11-04T07:08:21.362Z,1.68
2018-11-04T07:10:54.321Z,1.72
2018-11-04T07:13:23.943Z,1.75
2018-11-04T07:15:53.462Z,1.78
2018-11-04T07:18:23.062Z,1.81
2018-11-04T07:20:52.606Z,1.84
2018-11-04T07:23:22.182Z,1.89
2018-11-04T07:25:51.793Z,1.91
2018-11-04T07:28:21.499Z,1.96
2018-11-04T07:30:51.099Z,2.01
2018-11-04T07:33:20.599Z,2.09
2018-11-04T07:35:50.208Z,2.14
2018-11-04T07:38:21.019Z,2.19
2018-11-04T07:41:03.866Z,2.24
2018-11-04T07:43:33.663Z,2.28
2018-11-04T07:46:31.748Z,2.37
2018-11-04T07:52:07.091Z,2.48
2018-11-04T07:54:36.610Z,2.56
2018-11-04T07:57:06.352Z,2.63
2018-11-04T07:59:35.737Z,2.71
2018-11-04T08:02:06.164Z,2.80
2018-11-04T08:04:35.616Z,2.87
2018-11-04T08:07:41.071Z,2.92
2018-11-04T08:10:12.196Z,2.98
2018-11-04T08:12:42.160Z,3.07
2018-11-04T08:15:12.139Z,3.15
2018-11-04T08:17:46.861Z,3.22
2018-11-04T08:20:16.382Z,3.30
2018-11-04T08:22:45.767Z,3.38
2018-11-04T08:25:15.250Z,3.43
2018-11-04T08:27:46.593Z,3.52
2018-11-04T08:30:16.340Z,3.60
2018-11-04T08:32:45.818Z,3.67
2018-11-04T08:35:15.246Z,3.75
2018-11-04T08:37:44.695Z,3.83
2018-11-04T08:40:15.564Z,3.90
2018-11-04T08:42:47.713Z,3.96
2018-11-04T08:45:17.242Z,4.02
2018-11-04T08:48:17.401Z,4.11
2018-11-04T08:50:46.831Z,4.17
2018-11-04T08:53:16.265Z,4.25
2018-11-04T08:55:45.626Z,4.32
2018-11-04T08:58:15.090Z,4.39
2018-11-04T09:00:44.437Z,4.47
2018-11-04T09:03:13.815Z,4.54
2018-11-04T09:05:43.241Z,4.62
2018-11-04T09:08:20.313Z,4.69
2018-11-04T09:10:49.691Z,4.76
2018-11-04T09:13:19.098Z,4.85
2018-11-04T09:15:48.568Z,4.94
2018-11-04T09:18:17.938Z,5.03
2018-11-04T09:20:47.381Z,5.09
2018-11-04T09:23:16.806Z,5.17
2018-11-04T09:25:46.185Z,5.28
2018-11-04T09:28:15.757Z,5.37
2018-11-04T09:30:45.252Z,5.48
2018-11-04T09:33:14.710Z,5.57
2018-11-04T09:35:44.473Z,5.68
2018-11-04T09:38:13.718Z,5.77
2018-11-04T09:40:43.095Z,5.86
2018-11-04T09:43:12.423Z,5.95
2018-11-04T09:45:41.815Z,6.05
2018-11-04T09:48:11.251Z,6.14
2018-11-04T09:50:44.041Z,6.22
2018-11-04T09:53:23.688Z,6.28
2018-11-04T09:55:53.183Z,6.35
2018-11-04T09:58:22.554Z,6.43
2018-11-04T10:00:51.982Z,6.52
2018-11-04T10:03:50.378Z,6.61
2018-11-04T10:06:21.752Z,6.69
2018-11-04T10:08:51.169Z,6.79
2018-11-04T10:11:20.608Z,6.86
2018-11-04T10:13:50.138Z,6.93
2018-11-04T10:16:32.426Z,6.99
2018-11-04T10:19:01.918Z,7.07
2018-11-04T10:21:31.826Z,7.17
2018-11-04T10:24:06.397Z,7.24
2018-11-04T10:26:36.940Z,7.29
2018-11-04T10:29:06.809Z,7.35
2018-11-04T10:31:36.199Z,7.41
2018-11-04T10:34:28.346Z,7.51
2018-11-04T10:36:57.700Z,7.57
2018-11-04T10:39:27.149Z,7.64
2018-11-04T10:41:56.467Z,7.70
2018-11-04T10:44:26.653Z,7.79
2018-11-04T10:46:56.009Z,7.87
2018-11-04T10:49:25.445Z,7.94
2018-11-04T10:51:54.740Z,8.02
2018-11-04T10:54:24.100Z,8.10
2018-11-04T10:56:53.437Z,8.19
2018-11-04T10:59:22.800Z,8.27
2018-11-04T11:01:52.156Z,8.34
2018-11-04T11:04:21.507Z,8.39
2018-11-04T11:06:50.929Z,8.46
2018-11-04T11:09:20.321Z,8.53
2018-11-04T11:11:49.678Z,8.60
2018-11-04T11:14:19.007Z,8.68
2018-11-04T11:16:49.216Z,8.75
2018-11-04T11:19:18.583Z,8.84
2018-11-04T11:21:47.943Z,8.92
2018-11-04T11:24:17.308Z,9.02
2018-11-04T11:26:46.641Z,9.11
2018-11-04T11:29:16.008Z,9.21
2018-11-04T11:31:45.351Z,9.24
2018-11-04T11:34:14.728Z,9.32
2018-11-04T11:36:44.075Z,9.40
2018-11-04T11:39:14.287Z,9.51
2018-11-04T11:41:46.282Z,9.63
2018-11-04T11:44:22.986Z,9.72
2018-11-04T11:46:53.284Z,9.79
2018-11-04T11:49:22.662Z,9.86
2018-11-04T11:51:52.059Z,9.93
2018-11-04T11:54:21.567Z,10.01
2018-11-04T11:56:50.894Z,10.10
2018-11-04T11:59:20.263Z,10.21
2018-11-04T12:01:49.556Z,10.33
2018-11-04T12:04:18.896Z,10.40
2018-11-04T12:06:48.248Z,10.50
2018-11-04T12:09:20.343Z,10.61
2018-11-04T12:11:49.770Z,10.70
2018-11-04T12:14:19.169Z,10.80
2018-11-04T12:16:48.594Z,10.89
2018-11-04T12:19:19.242Z,11.01
2018-11-04T12:21:48.646Z,11.14
2018-11-04T12:24:18.047Z,11.27
2018-11-04T12:26:47.366Z,11.38
2018-11-04T12:29:16.739Z,11.46
2018-11-04T12:31:46.124Z,11.54
2018-11-04T12:34:16.045Z,11.62
2018-11-04T12:36:54.682Z,11.71
2018-11-04T12:39:24.120Z,11.61
2018-11-04T12:41:53.451Z,11.82
2018-11-04T12:44:22.960Z,12.15
2018-11-04T12:46:52.363Z,12.95
2018-11-04T12:49:22.591Z,13.74
2018-11-04T12:51:52.691Z,14.42
2018-11-04T12:54:22.099Z,14.96
2018-11-04T12:56:51.440Z,15.46
2018-11-04T12:59:20.993Z,15.97
2018-11-04T13:02:01.195Z,16.42
2018-11-04T13:04:30.639Z,16.56
2018-11-04T13:07:07.306Z,17.17
2018-11-04T13:09:44.383Z,17.00
2018-11-04T13:12:13.794Z,16.27
2018-11-04T13:14:43.149Z,15.51
2018-11-04T13:17:12.583Z,14.89
2018-11-04T13:19:43.463Z,14.39
2018-11-04T13:22:22.627Z,14.06
2018-11-04T13:24:51.960Z,13.77
2018-11-04T13:27:21.359Z,13.55
2018-11-04T13:29:50.718Z,13.33
2018-11-04T13:35:37.252Z,12.90
2018-11-04T13:51:48.553Z,12.16
2018-11-04T13:54:27.057Z,12.12
2018-11-04T13:56:56.433Z,12.06
2018-11-04T13:59:25.778Z,12.05
2018-11-04T14:01:55.112Z,12.13
2018-11-04T14:04:26.650Z,12.19
2018-11-04T14:06:56.083Z,12.25
2018-11-04T14:09:25.431Z,12.30
2018-11-04T14:11:54.779Z,12.32
2018-11-04T14:14:24.127Z,12.33
2018-11-04T14:16:53.512Z,12.31
2018-11-04T14:19:23.701Z,12.35
2018-11-04T14:22:05.375Z,12.44
2018-11-04T14:24:34.735Z,12.57
2018-11-04T14:29:48.254Z,12.75
2018-11-04T14:32:17.788Z,12.72
2018-11-04T14:34:47.162Z,12.69
2018-11-04T14:37:16.582Z,12.67
2018-11-04T14:39:49.853Z,12.69
2018-11-04T14:42:19.206Z,12.68
2018-11-04T14:44:56.817Z,12.62
2018-11-04T14:47:48.314Z,12.46
2018-11-04T14:50:19.010Z,12.30
2018-11-04T14:52:48.990Z,12.20
2018-11-04T14:55:22.521Z,12.10
2018-11-04T14:57:57.459Z,11.97
2018-11-04T15:00:45.089Z,11.82
2018-11-04T15:03:14.469Z,11.70
2018-11-04T15:05:43.860Z,11.62
2018-11-04T15:08:13.182Z,11.58
2018-11-04T15:10:42.558Z,11.52
2018-11-04T15:13:13.693Z,11.46
2018-11-04T15:15:43.059Z,11.38
2018-11-04T15:18:18.390Z,11.30
2018-11-04T15:20:51.780Z,11.18
2018-11-04T15:23:23.022Z,11.09
2018-11-04T15:25:55.994Z,10.98
2018-11-04T15:28:25.325Z,10.89
2018-11-04T15:30:58.233Z,10.80
2018-11-04T15:33:30.441Z,10.71
2018-11-04T15:36:07.859Z,10.59
2018-11-04T15:38:37.244Z,10.46
2018-11-04T15:41:09.080Z,10.36
2018-11-04T15:43:39.114Z,10.27
2018-11-04T15:46:09.000Z,10.20
2018-11-04T15:48:38.379Z,10.13
2018-11-04T15:51:07.749Z,10.05
2018-11-04T15:53:37.105Z,9.98
2018-11-04T15:56:54.708Z,9.92
2018-11-04T15:59:28.241Z,9.80
2018-11-04T16:01:57.580Z,9.78
2018-11-04T16:04:26.959Z,9.77
2018-11-04T16:06:58.410Z,9.76
2018-11-04T16:09:27.821Z,9.75
2018-11-04T16:11:57.207Z,9.75
2018-11-04T16:14:26.585Z,9.74
2018-11-04T16:16:55.930Z,9.75
2018-11-04T16:19:25.288Z,9.75
2018-11-04T16:21:54.817Z,9.80
2018-11-04T16:24:25.913Z,9.80
2018-11-04T16:27:10.070Z,9.83
2018-11-04T16:29:42.487Z,9.84
2018-11-04T16:32:13.508Z,9.85
2018-11-04T16:34:42.744Z,9.86
2018-11-04T16:37:12.160Z,10.07
2018-11-04T16:39:41.543Z,10.02
2018-11-04T16:42:10.907Z,9.97
2018-11-04T16:44:40.591Z,9.97
2018-11-04T16:47:10.101Z,9.96
2018-11-04T16:49:39.644Z,9.93
2018-11-04T16:52:09.205Z,9.96
2018-11-04T16:54:47.384Z,9.97
2018-11-04T16:57:22.568Z,9.95
2018-11-04T16:59:52.341Z,9.95
2018-11-04T17:02:44.784Z,9.96
2018-11-04T17:05:14.620Z,9.94
2018-11-04T17:07:44.206Z,9.96
2018-11-04T17:10:15.137Z,9.97
2018-11-04T17:12:44.764Z,9.96
2018-11-04T17:15:15.483Z,9.93
2018-11-04T17:17:45.329Z,9.94
2018-11-04T17:20:17.191Z,9.92
2018-11-04T17:22:47.218Z,9.90
2018-11-04T17:25:16.852Z,9.90
2018-11-04T17:27:46.507Z,9.90
2018-11-04T17:30:21.961Z,9.89
2018-11-04T17:32:57.770Z,9.89
2018-11-04T17:35:27.396Z,9.90
2018-11-04T17:37:56.927Z,9.91
2018-11-04T17:40:26.474Z,9.90
2018-11-04T17:42:56.135Z,9.89
2018-11-04T17:45:25.721Z,9.88
2018-11-04T17:47:55.557Z,9.88
2018-11-04T17:50:25.250Z,9.89
2018-11-04T17:52:58.892Z,9.86
2018-11-04T17:55:28.291Z,9.89
2018-11-04T17:57:57.631Z,9.89
2018-11-04T18:00:26.943Z,9.89
2018-11-04T18:02:56.271Z,9.89
2018-11-04T18:05:25.621Z,9.89
2018-11-04T18:07:55.026Z,9.87
2018-11-04T18:10:24.356Z,9.88
2018-11-04T18:12:53.718Z,9.88
2018-11-04T18:15:23.051Z,9.88
2018-11-04T18:17:52.390Z,9.89
2018-11-04T18:20:21.699Z,9.90
2018-11-04T18:22:51.057Z,9.90
2018-11-04T18:25:20.431Z,9.90
2018-11-04T18:27:49.795Z,9.90
2018-11-04T18:30:19.295Z,9.87
2018-11-04T18:32:48.842Z,9.88
2018-11-04T18:35:18.406Z,9.88
2018-11-04T18:37:48.212Z,9.83
2018-11-04T18:40:18.846Z,9.83
2018-11-04T18:42:48.454Z,9.81
2018-11-04T18:45:18.368Z,9.78
2018-11-04T18:47:47.973Z,9.79
2018-11-04T18:50:17.841Z,9.73
2018-11-04T18:52:47.647Z,9.73
2018-11-04T18:55:17.286Z,9.70
2018-11-04T18:57:46.817Z,9.69
2018-11-04T19:00:17.754Z,9.67
2018-11-04T19:02:48.259Z,9.71
2018-11-04T19:05:17.826Z,9.71
2018-11-04T19:07:47.435Z,9.72
2018-11-04T19:10:18.716Z,9.72
2018-11-04T19:12:48.442Z,9.72
2018-11-04T19:15:19.333Z,9.72
2018-11-04T19:17:49.102Z,9.73
2018-11-04T19:20:18.717Z,9.69
2018-11-04T19:22:48.410Z,9.69
2018-11-04T19:25:17.915Z,9.65
2018-11-04T19:27:47.504Z,9.62
2018-11-04T19:30:17.950Z,9.56
2018-11-04T19:32:47.637Z,9.50
2018-11-04T19:35:17.780Z,9.47
2018-11-04T19:37:47.395Z,9.44
2018-11-04T19:40:17.604Z,9.43
2018-11-04T19:42:47.127Z,9.24
2018-11-04T19:45:17.124Z,9.39
2018-11-04T19:47:46.966Z,9.41
2018-11-04T19:50:16.660Z,9.44
2018-11-04T19:55:27.593Z,9.51
2018-11-04T19:57:57.192Z,9.53
2018-11-04T20:00:26.750Z,9.54
2018-11-04T20:02:56.455Z,9.54
2018-11-04T20:05:26.209Z,9.53
2018-11-04T20:08:11.352Z,9.48
2018-11-04T20:10:40.937Z,9.40
2018-11-04T20:13:15.863Z,9.35
2018-11-04T20:15:45.386Z,9.27
2018-11-04T20:18:26.869Z,9.20
2018-11-04T20:20:56.528Z,9.13
2018-11-04T20:23:26.101Z,9.06
2018-11-04T20:26:02.558Z,8.97
2018-11-04T20:28:32.267Z,8.87
2018-11-04T20:31:01.782Z,8.79
2018-11-04T20:33:31.292Z,8.72
2018-11-04T20:36:01.026Z,8.72
2018-11-04T20:38:35.558Z,8.71
2018-11-04T20:41:11.513Z,8.70
2018-11-04T20:43:41.252Z,8.68
2018-11-04T20:46:11.648Z,8.68
2018-11-04T20:48:46.411Z,8.71
2018-11-04T20:51:18.806Z,8.70
2018-11-04T20:53:48.618Z,8.71
2018-11-04T20:56:23.396Z,8.71
2018-11-04T20:58:52.959Z,8.64
2018-11-04T21:01:22.671Z,8.54
2018-11-04T21:03:52.408Z,8.46
2018-11-04T21:06:22.007Z,8.40
2018-11-04T21:08:51.771Z,8.33
2018-11-04T21:11:21.602Z,8.25
2018-11-04T21:16:15.689Z,8.17
2018-11-04T21:18:45.102Z,8.12
2018-11-04T21:21:15.635Z,8.09
2018-11-04T21:23:45.347Z,8.07
2018-11-04T21:26:15.055Z,8.04
2018-11-04T21:28:44.809Z,8.01
2018-11-04T21:31:14.401Z,7.97
2018-11-04T21:33:44.793Z,7.94
2018-11-04T21:36:15.173Z,7.89
2018-11-04T21:38:47.819Z,7.82
2018-11-04T21:41:17.183Z,7.79
2018-11-04T21:43:46.790Z,7.77
2018-11-04T21:46:15.915Z,7.75
2018-11-04T21:48:46.008Z,7.71
2018-11-04T21:51:15.893Z,7.68
2018-11-04T21:53:45.218Z,7.69
2018-11-04T21:56:15.417Z,7.66
2018-11-04T21:58:45.147Z,7.62
2018-11-04T22:01:14.509Z,7.60
2018-11-04T22:03:43.922Z,7.59
2018-11-04T22:06:13.217Z,7.56
2018-11-04T22:08:42.610Z,7.52
2018-11-04T22:11:11.994Z,7.48
2018-11-04T22:13:41.389Z,7.45
2018-11-04T22:16:10.825Z,7.41
2018-11-04T22:18:40.575Z,7.38
2018-11-04T22:21:09.974Z,7.35
2018-11-04T22:23:39.376Z,7.30
2018-11-04T22:26:08.821Z,7.27
2018-11-04T22:28:38.211Z,7.27
2018-11-04T22:31:07.542Z,7.27
2018-11-04T22:33:36.886Z,7.24
2018-11-04T22:36:06.439Z,7.22
2018-11-04T22:38:35.799Z,7.21
2018-11-04T22:41:06.454Z,7.18
2018-11-04T22:43:35.927Z,7.16
2018-11-04T22:46:06.731Z,7.17
2018-11-04T22:48:39.404Z,7.23
2018-11-04T22:51:09.330Z,7.34
2018-11-04T22:53:38.705Z,7.45
2018-11-04T22:56:08.174Z,7.56
2018-11-04T22:58:37.467Z,7.64
2018-11-04T23:01:06.965Z,7.72
2018-11-04T23:03:36.328Z,7.78
2018-11-04T23:06:07.699Z,7.83
2018-11-04T23:08:37.059Z,7.88
2018-11-04T23:11:06.416Z,7.92
2018-11-04T23:13:35.769Z,7.96
2018-11-04T23:16:06.354Z,8.00
2018-11-04T23:18:35.831Z,8.03
2018-11-04T23:21:06.585Z,8.03
2018-11-04T23:23:35.938Z,8.04
2018-11-04T23:26:07.050Z,8.03
2018-11-04T23:28:36.431Z,7.99
2018-11-04T23:31:06.569Z,7.95
2018-11-04T23:33:37.826Z,7.93
2018-11-04T23:36:07.220Z,7.89
2018-11-04T23:38:36.595Z,7.87
2018-11-04T23:41:06.648Z,7.87
2018-11-04T23:43:36.042Z,7.85
2018-11-04T23:46:06.906Z,7.81
2018-11-04T23:48:36.270Z,7.78
2018-11-04T23:51:06.592Z,7.78
2018-11-04T23:53:35.930Z,7.78
2018-11-04T23:56:06.578Z,7.82
2018-11-04T23:58:36.281Z,7.85
